sensor_id;sensor_type;location;lat;lon;timestamp;P1;durP1;ratioP1;P2;durP2;ratioP2
11865;SDS011;5992;52.744;6.898;2022-07-09T00:02:02;2.83;;;1.50;;
11865;SDS011;5992;52.744;6.898;2022-07-09T00:05:34;2.03;;;1.53;;
11865;SDS011;5992;52.744;6.898;2022-07-09T00:08:53;3.67;;;2.20;;
11865;SDS011;5992;52.744;6.898;2022-07-09T00:12:31;2.13;;;1.90;;
11865;SDS011;5992;52.744;6.898;2022-07-09T00:15:54;2.17;;;1.97;;
11865;SDS011;5992;52.744;6.898;2022-07-09T00:19:16;2.10;;;1.40;;
11865;SDS011;5992;52.744;6.898;2022-07-09T00:22:34;2.77;;;1.67;;
11865;SDS011;5992;52.744;6.898;2022-07-09T00:26:10;2.40;;;1.50;;
11865;SDS011;5992;52.744;6.898;2022-07-09T00:29:15;2.67;;;1.83;;
11865;SDS011;5992;52.744;6.898;2022-07-09T00:32:50;4.10;;;1.80;;
11865;SDS011;5992;52.744;6.898;2022-07-09T00:35:55;3.70;;;1.70;;
11865;SDS011;5992;52.744;6.898;2022-07-09T00:39:29;4.85;;;1.95;;
11865;SDS011;5992;52.744;6.898;2022-07-09T00:42:40;2.27;;;1.53;;
11865;SDS011;5992;52.744;6.898;2022-07-09T00:46:06;2.70;;;1.80;;
11865;SDS011;5992;52.744;6.898;2022-07-09T00:49:38;2.95;;;1.85;;
11865;SDS011;5992;52.744;6.898;2022-07-09T00:53:09;2.80;;;1.90;;
11865;SDS011;5992;52.744;6.898;2022-07-09T00:56:25;2.10;;;1.90;;
11865;SDS011;5992;52.744;6.898;2022-07-09T00:59:57;3.30;;;1.70;;
11865;SDS011;5992;52.744;6.898;2022-07-09T01:03:15;2.37;;;1.70;;
11865;SDS011;5992;52.744;6.898;2022-07-09T01:06:48;3.03;;;1.50;;
11865;SDS011;5992;52.744;6.898;2022-07-09T01:10:05;3.03;;;2.07;;
11865;SDS011;5992;52.744;6.898;2022-07-09T01:13:38;1.87;;;1.60;;
11865;SDS011;5992;52.744;6.898;2022-07-09T01:16:43;2.67;;;1.60;;
11865;SDS011;5992;52.744;6.898;2022-07-09T01:23:22;2.03;;;1.47;;
11865;SDS011;5992;52.744;6.898;2022-07-09T01:26:56;2.03;;;1.77;;
11865;SDS011;5992;52.744;6.898;2022-07-09T01:30:03;2.83;;;1.90;;
11865;SDS011;5992;52.744;6.898;2022-07-09T01:33:33;4.50;;;1.83;;
11865;SDS011;5992;52.744;6.898;2022-07-09T01:36:49;2.47;;;1.40;;
11865;SDS011;5992;52.744;6.898;2022-07-09T01:40:12;3.43;;;1.87;;
11865;SDS011;5992;52.744;6.898;2022-07-09T01:43:30;4.20;;;1.87;;
11865;SDS011;5992;52.744;6.898;2022-07-09T01:47:01;4.77;;;1.93;;
11865;SDS011;5992;52.744;6.898;2022-07-09T01:50:08;1.70;;;1.40;;
11865;SDS011;5992;52.744;6.898;2022-07-09T01:53:40;4.35;;;1.90;;
11865;SDS011;5992;52.744;6.898;2022-07-09T01:56:58;2.75;;;1.60;;
11865;SDS011;5992;52.744;6.898;2022-07-09T02:00:27;2.35;;;2.00;;
11865;SDS011;5992;52.744;6.898;2022-07-09T02:03:57;3.05;;;1.95;;
11865;SDS011;5992;52.744;6.898;2022-07-09T02:07:04;2.95;;;2.20;;
11865;SDS011;5992;52.744;6.898;2022-07-09T02:10:36;2.63;;;2.37;;
11865;SDS011;5992;52.744;6.898;2022-07-09T02:13:57;5.95;;;1.90;;
11865;SDS011;5992;52.744;6.898;2022-07-09T02:17:25;1.67;;;1.57;;
11865;SDS011;5992;52.744;6.898;2022-07-09T02:20:41;3.20;;;1.80;;
11865;SDS011;5992;52.744;6.898;2022-07-09T02:24:02;2.37;;;1.50;;
11865;SDS011;5992;52.744;6.898;2022-07-09T02:27:12;3.87;;;2.37;;
11865;SDS011;5992;52.744;6.898;2022-07-09T02:30:46;3.07;;;1.53;;
11865;SDS011;5992;52.744;6.898;2022-07-09T02:34:04;4.90;;;2.00;;
11865;SDS011;5992;52.744;6.898;2022-07-09T02:37:26;5.00;;;2.10;;
11865;SDS011;5992;52.744;6.898;2022-07-09T02:40:45;2.15;;;1.90;;
11865;SDS011;5992;52.744;6.898;2022-07-09T02:44:10;2.60;;;2.07;;
11865;SDS011;5992;52.744;6.898;2022-07-09T02:47:19;3.30;;;1.90;;
11865;SDS011;5992;52.744;6.898;2022-07-09T02:50:52;2.07;;;1.83;;
11865;SDS011;5992;52.744;6.898;2022-07-09T02:54:09;2.50;;;2.30;;
11865;SDS011;5992;52.744;6.898;2022-07-09T02:57:31;4.95;;;3.15;;
11865;SDS011;5992;52.744;6.898;2022-07-09T03:00:48;2.33;;;1.80;;
11865;SDS011;5992;52.744;6.898;2022-07-09T03:04:12;3.03;;;2.20;;
11865;SDS011;5992;52.744;6.898;2022-07-09T03:07:27;2.87;;;2.13;;
11865;SDS011;5992;52.744;6.898;2022-07-09T03:11:01;2.43;;;2.00;;
11865;SDS011;5992;52.744;6.898;2022-07-09T03:14:06;4.75;;;2.40;;
11865;SDS011;5992;52.744;6.898;2022-07-09T03:17:26;3.60;;;2.35;;
11865;SDS011;5992;52.744;6.898;2022-07-09T03:20:33;2.83;;;2.40;;
11865;SDS011;5992;52.744;6.898;2022-07-09T03:24:04;4.60;;;2.27;;
11865;SDS011;5992;52.744;6.898;2022-07-09T03:27:20;2.73;;;2.30;;
11865;SDS011;5992;52.744;6.898;2022-07-09T03:30:42;2.40;;;2.20;;
11865;SDS011;5992;52.744;6.898;2022-07-09T03:33:47;4.83;;;2.83;;
11865;SDS011;5992;52.744;6.898;2022-07-09T03:37:09;5.70;;;2.80;;
11865;SDS011;5992;52.744;6.898;2022-07-09T03:40:40;2.17;;;2.03;;
11865;SDS011;5992;52.744;6.898;2022-07-09T03:44:09;5.43;;;2.80;;
11865;SDS011;5992;52.744;6.898;2022-07-09T03:47:16;6.27;;;3.83;;
11865;SDS011;5992;52.744;6.898;2022-07-09T03:50:47;4.03;;;2.77;;
11865;SDS011;5992;52.744;6.898;2022-07-09T03:54:00;2.70;;;2.00;;
11865;SDS011;5992;52.744;6.898;2022-07-09T03:57:34;4.80;;;2.63;;
11865;SDS011;5992;52.744;6.898;2022-07-09T04:00:39;4.65;;;2.40;;
11865;SDS011;5992;52.744;6.898;2022-07-09T04:04:00;2.20;;;2.03;;
11865;SDS011;5992;52.744;6.898;2022-07-09T04:07:07;3.63;;;2.40;;
11865;SDS011;5992;52.744;6.898;2022-07-09T04:10:27;3.23;;;2.27;;
11865;SDS011;5992;52.744;6.898;2022-07-09T04:13:45;3.87;;;3.10;;
11865;SDS011;5992;52.744;6.898;2022-07-09T04:17:21;5.47;;;2.70;;
11865;SDS011;5992;52.744;6.898;2022-07-09T04:20:27;2.43;;;2.23;;
11865;SDS011;5992;52.744;6.898;2022-07-09T04:23:47;2.95;;;2.10;;
11865;SDS011;5992;52.744;6.898;2022-07-09T04:27:08;3.57;;;2.03;;
11865;SDS011;5992;52.744;6.898;2022-07-09T04:30:40;2.50;;;2.30;;
11865;SDS011;5992;52.744;6.898;2022-07-09T04:34:00;2.30;;;2.10;;
11865;SDS011;5992;52.744;6.898;2022-07-09T04:37:17;4.70;;;2.40;;
11865;SDS011;5992;52.744;6.898;2022-07-09T04:40:27;4.80;;;2.57;;
11865;SDS011;5992;52.744;6.898;2022-07-09T04:43:49;4.03;;;2.50;;
11865;SDS011;5992;52.744;6.898;2022-07-09T04:47:06;2.50;;;2.30;;
11865;SDS011;5992;52.744;6.898;2022-07-09T04:50:28;3.33;;;1.97;;
11865;SDS011;5992;52.744;6.898;2022-07-09T04:53:51;2.47;;;2.23;;
11865;SDS011;5992;52.744;6.898;2022-07-09T04:57:11;4.60;;;3.60;;
11865;SDS011;5992;52.744;6.898;2022-07-09T05:00:28;3.05;;;2.45;;
11865;SDS011;5992;52.744;6.898;2022-07-09T05:03:58;2.50;;;2.30;;
11865;SDS011;5992;52.744;6.898;2022-07-09T05:07:05;3.87;;;2.73;;
11865;SDS011;5992;52.744;6.898;2022-07-09T05:10:39;2.53;;;2.33;;
11865;SDS011;5992;52.744;6.898;2022-07-09T05:13:44;3.97;;;3.47;;
11865;SDS011;5992;52.744;6.898;2022-07-09T05:17:17;2.30;;;2.10;;
11865;SDS011;5992;52.744;6.898;2022-07-09T05:20:33;5.40;;;3.00;;
11865;SDS011;5992;52.744;6.898;2022-07-09T05:23:56;4.53;;;2.93;;
11865;SDS011;5992;52.744;6.898;2022-07-09T05:27:24;5.07;;;3.37;;
11865;SDS011;5992;52.744;6.898;2022-07-09T05:30:58;5.97;;;3.13;;
11865;SDS011;5992;52.744;6.898;2022-07-09T05:34:15;3.20;;;2.70;;
11865;SDS011;5992;52.744;6.898;2022-07-09T05:37:49;4.55;;;3.75;;
11865;SDS011;5992;52.744;6.898;2022-07-09T05:40:54;2.90;;;2.60;;
11865;SDS011;5992;52.744;6.898;2022-07-09T05:44:14;3.45;;;2.25;;
11865;SDS011;5992;52.744;6.898;2022-07-09T05:47:30;2.93;;;2.40;;
11865;SDS011;5992;52.744;6.898;2022-07-09T05:50:51;5.20;;;4.20;;
11865;SDS011;5992;52.744;6.898;2022-07-09T05:54:07;3.73;;;2.67;;
11865;SDS011;5992;52.744;6.898;2022-07-09T05:57:27;4.20;;;3.50;;
11865;SDS011;5992;52.744;6.898;2022-07-09T06:00:34;4.25;;;2.60;;
11865;SDS011;5992;52.744;6.898;2022-07-09T06:03:52;3.07;;;2.53;;
11865;SDS011;5992;52.744;6.898;2022-07-09T06:07:12;4.73;;;3.17;;
11865;SDS011;5992;52.744;6.898;2022-07-09T06:10:43;3.40;;;3.10;;
11865;SDS011;5992;52.744;6.898;2022-07-09T06:14:00;4.60;;;2.97;;
11865;SDS011;5992;52.744;6.898;2022-07-09T06:17:20;4.50;;;2.75;;
11865;SDS011;5992;52.744;6.898;2022-07-09T06:20:36;3.13;;;2.57;;
11865;SDS011;5992;52.744;6.898;2022-07-09T06:23:57;2.10;;;1.90;;
11865;SDS011;5992;52.744;6.898;2022-07-09T06:27:16;2.40;;;2.20;;
11865;SDS011;5992;52.744;6.898;2022-07-09T06:30:37;3.57;;;2.67;;
11865;SDS011;5992;52.744;6.898;2022-07-09T06:33:45;1.93;;;1.83;;
11865;SDS011;5992;52.744;6.898;2022-07-09T06:37:07;2.35;;;2.15;;
11865;SDS011;5992;52.744;6.898;2022-07-09T06:40:24;3.05;;;2.45;;
11865;SDS011;5992;52.744;6.898;2022-07-09T06:43:58;3.05;;;2.05;;
11865;SDS011;5992;52.744;6.898;2022-07-09T06:47:03;4.83;;;2.10;;
11865;SDS011;5992;52.744;6.898;2022-07-09T06:50:37;3.03;;;2.20;;
11865;SDS011;5992;52.744;6.898;2022-07-09T06:53:41;3.10;;;1.77;;
11865;SDS011;5992;52.744;6.898;2022-07-09T06:57:04;2.33;;;2.00;;
11865;SDS011;5992;52.744;6.898;2022-07-09T07:00:20;2.25;;;2.05;;
11865;SDS011;5992;52.744;6.898;2022-07-09T07:03:39;2.67;;;2.10;;
11865;SDS011;5992;52.744;6.898;2022-07-09T07:10:20;2.10;;;1.97;;
11865;SDS011;5992;52.744;6.898;2022-07-09T07:13:44;2.83;;;1.80;;
11865;SDS011;5992;52.744;6.898;2022-07-09T07:17:00;2.05;;;1.40;;
11865;SDS011;5992;52.744;6.898;2022-07-09T07:20:21;5.30;;;2.00;;
11865;SDS011;5992;52.744;6.898;2022-07-09T07:23:42;2.00;;;1.80;;
11865;SDS011;5992;52.744;6.898;2022-07-09T07:27:02;2.20;;;1.80;;
11865;SDS011;5992;52.744;6.898;2022-07-09T07:30:22;1.90;;;1.70;;
11865;SDS011;5992;52.744;6.898;2022-07-09T07:33:56;2.27;;;2.07;;
11865;SDS011;5992;52.744;6.898;2022-07-09T07:37:13;2.03;;;1.60;;
11865;SDS011;5992;52.744;6.898;2022-07-09T07:40:34;1.40;;;1.30;;
11865;SDS011;5992;52.744;6.898;2022-07-09T07:43:47;2.47;;;1.90;;
11865;SDS011;5992;52.744;6.898;2022-07-09T07:47:25;2.53;;;2.10;;
11865;SDS011;5992;52.744;6.898;2022-07-09T07:50:43;2.45;;;1.60;;
11865;SDS011;5992;52.744;6.898;2022-07-09T07:54:13;3.30;;;1.97;;
11865;SDS011;5992;52.744;6.898;2022-07-09T07:57:29;1.73;;;1.63;;
11865;SDS011;5992;52.744;6.898;2022-07-09T08:00:48;1.65;;;1.50;;
11865;SDS011;5992;52.744;6.898;2022-07-09T08:04:13;1.80;;;1.43;;
11865;SDS011;5992;52.744;6.898;2022-07-09T08:07:33;1.60;;;1.40;;
11865;SDS011;5992;52.744;6.898;2022-07-09T08:10:58;1.10;;;1.10;;
11865;SDS011;5992;52.744;6.898;2022-07-09T08:17:40;1.37;;;1.23;;
11865;SDS011;5992;52.744;6.898;2022-07-09T08:20:49;2.13;;;1.60;;
11865;SDS011;5992;52.744;6.898;2022-07-09T08:24:20;2.33;;;1.93;;
11865;SDS011;5992;52.744;6.898;2022-07-09T08:27:28;2.10;;;1.60;;
11865;SDS011;5992;52.744;6.898;2022-07-09T08:30:48;1.40;;;1.30;;
11865;SDS011;5992;52.744;6.898;2022-07-09T08:33:56;1.75;;;1.35;;
11865;SDS011;5992;52.744;6.898;2022-07-09T08:40:32;1.33;;;1.23;;
11865;SDS011;5992;52.744;6.898;2022-07-09T08:44:10;1.60;;;1.37;;
11865;SDS011;5992;52.744;6.898;2022-07-09T08:47:41;2.23;;;1.37;;
11865;SDS011;5992;52.744;6.898;2022-07-09T08:51:10;1.60;;;1.50;;
11865;SDS011;5992;52.744;6.898;2022-07-09T08:54:25;2.45;;;1.45;;
11865;SDS011;5992;52.744;6.898;2022-07-09T08:57:59;3.63;;;1.60;;
11865;SDS011;5992;52.744;6.898;2022-07-09T09:01:16;1.50;;;1.40;;
11865;SDS011;5992;52.744;6.898;2022-07-09T09:04:44;3.20;;;1.40;;
11865;SDS011;5992;52.744;6.898;2022-07-09T09:07:49;1.47;;;1.37;;
11865;SDS011;5992;52.744;6.898;2022-07-09T09:11:15;1.80;;;1.40;;
11865;SDS011;5992;52.744;6.898;2022-07-09T09:14:32;1.30;;;1.30;;
11865;SDS011;5992;52.744;6.898;2022-07-09T09:18:09;2.10;;;1.20;;
11865;SDS011;5992;52.744;6.898;2022-07-09T09:21:28;1.13;;;1.00;;
11865;SDS011;5992;52.744;6.898;2022-07-09T09:25:05;1.67;;;1.30;;
11865;SDS011;5992;52.744;6.898;2022-07-09T09:28:22;1.30;;;1.20;;
11865;SDS011;5992;52.744;6.898;2022-07-09T09:31:40;3.33;;;1.03;;
11865;SDS011;5992;52.744;6.898;2022-07-09T09:35:02;1.35;;;1.30;;
11865;SDS011;5992;52.744;6.898;2022-07-09T09:38:38;1.33;;;0.87;;
11865;SDS011;5992;52.744;6.898;2022-07-09T09:41:49;1.33;;;1.20;;
11865;SDS011;5992;52.744;6.898;2022-07-09T09:45:20;1.10;;;1.00;;
11865;SDS011;5992;52.744;6.898;2022-07-09T09:52:22;1.80;;;1.10;;
11865;SDS011;5992;52.744;6.898;2022-07-09T09:55:39;1.63;;;1.57;;
11865;SDS011;5992;52.744;6.898;2022-07-09T09:59:13;3.33;;;1.13;;
11865;SDS011;5992;52.744;6.898;2022-07-09T10:02:43;0.70;;;0.70;;
11865;SDS011;5992;52.744;6.898;2022-07-09T10:06:10;1.17;;;1.00;;
11865;SDS011;5992;52.744;6.898;2022-07-09T10:09:16;1.17;;;0.93;;
11865;SDS011;5992;52.744;6.898;2022-07-09T10:12:52;1.07;;;1.03;;
11865;SDS011;5992;52.744;6.898;2022-07-09T10:16:12;1.50;;;1.20;;
11865;SDS011;5992;52.744;6.898;2022-07-09T10:19:34;0.97;;;0.90;;
11865;SDS011;5992;52.744;6.898;2022-07-09T10:26:11;1.13;;;1.03;;
11865;SDS011;5992;52.744;6.898;2022-07-09T10:29:35;1.27;;;0.90;;
11865;SDS011;5992;52.744;6.898;2022-07-09T10:33:10;0.80;;;0.80;;
11865;SDS011;5992;52.744;6.898;2022-07-09T10:36:25;0.80;;;0.80;;
11865;SDS011;5992;52.744;6.898;2022-07-09T10:40:03;0.97;;;0.90;;
11865;SDS011;5992;52.744;6.898;2022-07-09T10:43:15;1.10;;;0.83;;
11865;SDS011;5992;52.744;6.898;2022-07-09T10:46:55;1.00;;;0.80;;
11865;SDS011;5992;52.744;6.898;2022-07-09T10:50:13;0.80;;;0.80;;
11865;SDS011;5992;52.744;6.898;2022-07-09T10:53:31;0.93;;;0.83;;
11865;SDS011;5992;52.744;6.898;2022-07-09T10:56:47;1.00;;;0.90;;
11865;SDS011;5992;52.744;6.898;2022-07-09T11:00:24;1.33;;;0.90;;
11865;SDS011;5992;52.744;6.898;2022-07-09T11:03:39;2.70;;;0.80;;
11865;SDS011;5992;52.744;6.898;2022-07-09T11:06:57;4.73;;;0.93;;
11865;SDS011;5992;52.744;6.898;2022-07-09T11:10:26;2.03;;;1.20;;
11865;SDS011;5992;52.744;6.898;2022-07-09T11:13:58;1.93;;;1.00;;
11865;SDS011;5992;52.744;6.898;2022-07-09T11:17:16;1.20;;;1.00;;
11865;SDS011;5992;52.744;6.898;2022-07-09T11:20:49;1.43;;;0.73;;
11865;SDS011;5992;52.744;6.898;2022-07-09T11:24:14;1.13;;;0.80;;
11865;SDS011;5992;52.744;6.898;2022-07-09T11:27:45;1.07;;;1.00;;
11865;SDS011;5992;52.744;6.898;2022-07-09T11:31:02;1.90;;;1.17;;
11865;SDS011;5992;52.744;6.898;2022-07-09T11:34:35;1.47;;;1.00;;
11865;SDS011;5992;52.744;6.898;2022-07-09T11:37:52;2.33;;;0.77;;
11865;SDS011;5992;52.744;6.898;2022-07-09T11:41:25;1.03;;;0.93;;
11865;SDS011;5992;52.744;6.898;2022-07-09T11:44:41;2.20;;;1.20;;
11865;SDS011;5992;52.744;6.898;2022-07-09T11:48:14;1.05;;;0.95;;
11865;SDS011;5992;52.744;6.898;2022-07-09T11:51:30;0.90;;;0.90;;
11865;SDS011;5992;52.744;6.898;2022-07-09T11:55:02;1.73;;;1.10;;
11865;SDS011;5992;52.744;6.898;2022-07-09T11:58:17;0.97;;;0.80;;
11865;SDS011;5992;52.744;6.898;2022-07-09T12:01:40;2.40;;;1.00;;
11865;SDS011;5992;52.744;6.898;2022-07-09T12:05:04;1.57;;;1.00;;
11865;SDS011;5992;52.744;6.898;2022-07-09T12:08:27;1.67;;;0.87;;
11865;SDS011;5992;52.744;6.898;2022-07-09T12:11:59;2.70;;;1.10;;
11865;SDS011;5992;52.744;6.898;2022-07-09T12:15:15;1.10;;;1.07;;
11865;SDS011;5992;52.744;6.898;2022-07-09T12:18:34;1.70;;;1.23;;
11865;SDS011;5992;52.744;6.898;2022-07-09T12:21:41;1.30;;;0.97;;
11865;SDS011;5992;52.744;6.898;2022-07-09T12:25:03;1.20;;;1.10;;
11865;SDS011;5992;52.744;6.898;2022-07-09T12:28:22;10.30;;;1.20;;
11865;SDS011;5992;52.744;6.898;2022-07-09T12:34:48;1.77;;;1.07;;
11865;SDS011;5992;52.744;6.898;2022-07-09T12:38:20;3.00;;;1.30;;
11865;SDS011;5992;52.744;6.898;2022-07-09T12:41:25;1.55;;;1.10;;
11865;SDS011;5992;52.744;6.898;2022-07-09T12:44:43;2.23;;;1.20;;
11865;SDS011;5992;52.744;6.898;2022-07-09T12:47:49;0.80;;;0.80;;
11865;SDS011;5992;52.744;6.898;2022-07-09T12:51:20;2.00;;;0.93;;
11865;SDS011;5992;52.744;6.898;2022-07-09T12:54:40;2.57;;;1.40;;
11865;SDS011;5992;52.744;6.898;2022-07-09T13:01:21;3.47;;;1.40;;
11865;SDS011;5992;52.744;6.898;2022-07-09T13:04:56;1.90;;;1.00;;
11865;SDS011;5992;52.744;6.898;2022-07-09T13:08:05;1.50;;;1.00;;
11865;SDS011;5992;52.744;6.898;2022-07-09T13:11:36;2.77;;;1.07;;
11865;SDS011;5992;52.744;6.898;2022-07-09T13:14:53;2.20;;;1.00;;
11865;SDS011;5992;52.744;6.898;2022-07-09T13:18:16;4.15;;;1.00;;
11865;SDS011;5992;52.744;6.898;2022-07-09T13:21:21;1.15;;;1.05;;
11865;SDS011;5992;52.744;6.898;2022-07-09T13:24:51;3.20;;;1.40;;
11865;SDS011;5992;52.744;6.898;2022-07-09T13:28:10;1.20;;;1.00;;
11865;SDS011;5992;52.744;6.898;2022-07-09T13:31:32;2.60;;;1.00;;
11865;SDS011;5992;52.744;6.898;2022-07-09T13:38:15;2.80;;;1.40;;
11865;SDS011;5992;52.744;6.898;2022-07-09T13:51:02;4.10;;;1.50;;
11865;SDS011;5992;52.744;6.898;2022-07-09T14:04:43;1.55;;;1.20;;
11865;SDS011;5992;52.744;6.898;2022-07-09T14:24:22;2.95;;;0.90;;
11865;SDS011;5992;52.744;6.898;2022-07-09T15:03:50;3.45;;;2.15;;
11865;SDS011;5992;52.744;6.898;2022-07-09T15:33:20;3.60;;;1.40;;
11865;SDS011;5992;52.744;6.898;2022-07-09T15:43:21;2.00;;;1.20;;
11865;SDS011;5992;52.744;6.898;2022-07-09T15:46:28;1.90;;;1.10;;
11865;SDS011;5992;52.744;6.898;2022-07-09T15:49:50;3.30;;;1.50;;
11865;SDS011;5992;52.744;6.898;2022-07-09T15:52:56;2.45;;;1.50;;
11865;SDS011;5992;52.744;6.898;2022-07-09T15:56:32;2.95;;;1.90;;
11865;SDS011;5992;52.744;6.898;2022-07-09T15:59:50;3.20;;;1.73;;
11865;SDS011;5992;52.744;6.898;2022-07-09T16:03:25;4.60;;;1.30;;
11865;SDS011;5992;52.744;6.898;2022-07-09T16:06:32;4.50;;;2.20;;
11865;SDS011;5992;52.744;6.898;2022-07-09T16:10:04;3.30;;;1.93;;
11865;SDS011;5992;52.744;6.898;2022-07-09T16:13:23;2.70;;;1.90;;
11865;SDS011;5992;52.744;6.898;2022-07-09T16:16:41;3.73;;;1.90;;
11865;SDS011;5992;52.744;6.898;2022-07-09T16:23:38;2.85;;;2.50;;
11865;SDS011;5992;52.744;6.898;2022-07-09T16:26:45;3.55;;;2.80;;
11865;SDS011;5992;52.744;6.898;2022-07-09T16:30:19;5.63;;;3.67;;
11865;SDS011;5992;52.744;6.898;2022-07-09T16:33:35;9.93;;;5.77;;
11865;SDS011;5992;52.744;6.898;2022-07-09T16:36:55;5.87;;;4.37;;
11865;SDS011;5992;52.744;6.898;2022-07-09T16:40:02;6.80;;;4.37;;
11865;SDS011;5992;52.744;6.898;2022-07-09T16:43:34;8.80;;;5.20;;
11865;SDS011;5992;52.744;6.898;2022-07-09T16:46:52;8.03;;;4.07;;
11865;SDS011;5992;52.744;6.898;2022-07-09T16:50:24;6.63;;;3.97;;
11865;SDS011;5992;52.744;6.898;2022-07-09T16:53:31;4.30;;;3.77;;
11865;SDS011;5992;52.744;6.898;2022-07-09T16:57:06;4.65;;;3.75;;
11865;SDS011;5992;52.744;6.898;2022-07-09T17:00:22;5.67;;;3.23;;
11865;SDS011;5992;52.744;6.898;2022-07-09T17:03:47;5.87;;;3.30;;
11865;SDS011;5992;52.744;6.898;2022-07-09T17:07:05;3.40;;;2.40;;
11865;SDS011;5992;52.744;6.898;2022-07-09T17:10:27;3.20;;;2.40;;
11865;SDS011;5992;52.744;6.898;2022-07-09T17:13:46;3.53;;;2.37;;
11865;SDS011;5992;52.744;6.898;2022-07-09T17:17:04;2.57;;;2.20;;
11865;SDS011;5992;52.744;6.898;2022-07-09T17:20:13;2.93;;;2.03;;
11865;SDS011;5992;52.744;6.898;2022-07-09T17:23:49;2.77;;;1.70;;
11865;SDS011;5992;52.744;6.898;2022-07-09T17:27:06;2.60;;;1.80;;
11865;SDS011;5992;52.744;6.898;2022-07-09T17:30:38;1.50;;;1.30;;
11865;SDS011;5992;52.744;6.898;2022-07-09T17:33:45;2.63;;;1.50;;
11865;SDS011;5992;52.744;6.898;2022-07-09T17:37:24;2.23;;;1.53;;
11865;SDS011;5992;52.744;6.898;2022-07-09T17:40:40;2.13;;;1.60;;
11865;SDS011;5992;52.744;6.898;2022-07-09T17:47:26;2.33;;;1.20;;
11865;SDS011;5992;52.744;6.898;2022-07-09T17:50:58;2.57;;;1.40;;
11865;SDS011;5992;52.744;6.898;2022-07-09T17:54:16;2.20;;;1.17;;
11865;SDS011;5992;52.744;6.898;2022-07-09T17:57:49;2.77;;;1.33;;
11865;SDS011;5992;52.744;6.898;2022-07-09T18:01:10;3.97;;;0.90;;
11865;SDS011;5992;52.744;6.898;2022-07-09T18:07:54;3.63;;;1.47;;
11865;SDS011;5992;52.744;6.898;2022-07-09T18:11:27;2.20;;;0.90;;
11865;SDS011;5992;52.744;6.898;2022-07-09T18:14:47;3.00;;;1.05;;
11865;SDS011;5992;52.744;6.898;2022-07-09T18:18:11;1.23;;;0.90;;
11865;SDS011;5992;52.744;6.898;2022-07-09T18:21:43;2.50;;;1.10;;
11865;SDS011;5992;52.744;6.898;2022-07-09T18:25:06;1.73;;;1.03;;
11865;SDS011;5992;52.744;6.898;2022-07-09T18:28:24;2.63;;;1.20;;
11865;SDS011;5992;52.744;6.898;2022-07-09T18:32:00;2.07;;;0.93;;
11865;SDS011;5992;52.744;6.898;2022-07-09T18:35:16;2.90;;;1.20;;
11865;SDS011;5992;52.744;6.898;2022-07-09T18:38:36;1.83;;;1.10;;
11865;SDS011;5992;52.744;6.898;2022-07-09T18:41:43;1.40;;;1.03;;
11865;SDS011;5992;52.744;6.898;2022-07-09T18:45:03;1.03;;;0.93;;
11865;SDS011;5992;52.744;6.898;2022-07-09T18:48:19;2.17;;;0.90;;
11865;SDS011;5992;52.744;6.898;2022-07-09T18:51:57;1.23;;;0.70;;
11865;SDS011;5992;52.744;6.898;2022-07-09T18:55:16;1.30;;;1.00;;
11865;SDS011;5992;52.744;6.898;2022-07-09T18:58:38;5.03;;;1.00;;
11865;SDS011;5992;52.744;6.898;2022-07-09T19:01:45;1.20;;;0.90;;
11865;SDS011;5992;52.744;6.898;2022-07-09T19:05:22;2.03;;;1.00;;
11865;SDS011;5992;52.744;6.898;2022-07-09T19:08:40;2.07;;;1.17;;
11865;SDS011;5992;52.744;6.898;2022-07-09T19:12:04;0.70;;;0.70;;
11865;SDS011;5992;52.744;6.898;2022-07-09T19:15:08;1.40;;;0.95;;
11865;SDS011;5992;52.744;6.898;2022-07-09T19:18:44;1.83;;;1.00;;
11865;SDS011;5992;52.744;6.898;2022-07-09T19:22:17;3.13;;;0.90;;
11865;SDS011;5992;52.744;6.898;2022-07-09T19:28:44;2.05;;;0.82;;
11865;SDS011;5992;52.744;6.898;2022-07-09T19:35:59;0.93;;;0.60;;
11865;SDS011;5992;52.744;6.898;2022-07-09T19:39:20;3.43;;;1.40;;
11865;SDS011;5992;52.744;6.898;2022-07-09T19:42:39;1.63;;;0.70;;
11865;SDS011;5992;52.744;6.898;2022-07-09T19:46:06;3.80;;;1.20;;
11865;SDS011;5992;52.744;6.898;2022-07-09T19:49:21;1.30;;;0.80;;
11865;SDS011;5992;52.744;6.898;2022-07-09T19:52:41;1.27;;;0.70;;
11865;SDS011;5992;52.744;6.898;2022-07-09T19:55:46;2.10;;;1.07;;
11865;SDS011;5992;52.744;6.898;2022-07-09T19:59:04;0.70;;;0.70;;
11865;SDS011;5992;52.744;6.898;2022-07-09T20:02:13;1.70;;;0.90;;
11865;SDS011;5992;52.744;6.898;2022-07-09T20:05:47;2.70;;;1.10;;
11865;SDS011;5992;52.744;6.898;2022-07-09T20:08:57;1.20;;;0.90;;
11865;SDS011;5992;52.744;6.898;2022-07-09T20:12:29;3.10;;;1.80;;
11865;SDS011;5992;52.744;6.898;2022-07-09T20:15:48;0.90;;;0.80;;
11865;SDS011;5992;52.744;6.898;2022-07-09T20:19:15;3.10;;;0.87;;
11865;SDS011;5992;52.744;6.898;2022-07-09T20:22:37;2.03;;;0.73;;
11865;SDS011;5992;52.744;6.898;2022-07-09T20:25:55;0.60;;;0.60;;
11865;SDS011;5992;52.744;6.898;2022-07-09T20:28:59;2.77;;;1.23;;
11865;SDS011;5992;52.744;6.898;2022-07-09T20:32:20;1.50;;;0.70;;
11865;SDS011;5992;52.744;6.898;2022-07-09T20:35:29;1.60;;;0.90;;
11865;SDS011;5992;52.744;6.898;2022-07-09T20:38:57;1.60;;;1.07;;
11865;SDS011;5992;52.744;6.898;2022-07-09T20:42:17;1.63;;;0.80;;
11865;SDS011;5992;52.744;6.898;2022-07-09T20:45:48;1.27;;;0.70;;
11865;SDS011;5992;52.744;6.898;2022-07-09T20:48:56;1.63;;;0.83;;
11865;SDS011;5992;52.744;6.898;2022-07-09T20:52:34;0.90;;;0.70;;
11865;SDS011;5992;52.744;6.898;2022-07-09T20:55:50;2.60;;;0.90;;
11865;SDS011;5992;52.744;6.898;2022-07-09T20:59:21;1.97;;;0.70;;
11865;SDS011;5992;52.744;6.898;2022-07-09T21:02:27;2.60;;;1.03;;
11865;SDS011;5992;52.744;6.898;2022-07-09T21:05:59;3.40;;;1.20;;
11865;SDS011;5992;52.744;6.898;2022-07-09T21:09:12;1.50;;;1.00;;
11865;SDS011;5992;52.744;6.898;2022-07-09T21:12:50;3.83;;;1.10;;
11865;SDS011;5992;52.744;6.898;2022-07-09T21:16:00;1.60;;;0.90;;
11865;SDS011;5992;52.744;6.898;2022-07-09T21:19:36;2.30;;;1.00;;
11865;SDS011;5992;52.744;6.898;2022-07-09T21:22:27;1.70;;;1.00;;
11865;SDS011;5992;52.744;6.898;2022-07-09T21:25:54;1.90;;;0.75;;
11865;SDS011;5992;52.744;6.898;2022-07-09T21:29:12;3.90;;;1.15;;
11865;SDS011;5992;52.744;6.898;2022-07-09T21:32:35;1.15;;;0.85;;
11865;SDS011;5992;52.744;6.898;2022-07-09T21:35:40;1.60;;;0.60;;
11865;SDS011;5992;52.744;6.898;2022-07-09T21:42:03;2.20;;;0.93;;
11865;SDS011;5992;52.744;6.898;2022-07-09T21:45:32;2.43;;;0.90;;
11865;SDS011;5992;52.744;6.898;2022-07-09T21:48:40;4.67;;;0.97;;
11865;SDS011;5992;52.744;6.898;2022-07-09T21:55:07;2.40;;;1.00;;
11865;SDS011;5992;52.744;6.898;2022-07-09T21:58:36;2.10;;;1.30;;
11865;SDS011;5992;52.744;6.898;2022-07-09T22:05:18;2.63;;;1.10;;
11865;SDS011;5992;52.744;6.898;2022-07-09T22:08:22;1.80;;;0.80;;
11865;SDS011;5992;52.744;6.898;2022-07-09T22:11:58;1.65;;;0.90;;
11865;SDS011;5992;52.744;6.898;2022-07-09T22:15:19;1.50;;;1.10;;
11865;SDS011;5992;52.744;6.898;2022-07-09T22:18:47;1.20;;;0.70;;
11865;SDS011;5992;52.744;6.898;2022-07-09T22:21:53;1.45;;;0.70;;
11865;SDS011;5992;52.744;6.898;2022-07-09T22:25:31;2.40;;;0.90;;
11865;SDS011;5992;52.744;6.898;2022-07-09T22:28:36;0.73;;;0.73;;
11865;SDS011;5992;52.744;6.898;2022-07-09T22:32:09;2.20;;;0.97;;
11865;SDS011;5992;52.744;6.898;2022-07-09T22:35:28;1.95;;;1.05;;
11865;SDS011;5992;52.744;6.898;2022-07-09T22:42:10;3.40;;;0.97;;
11865;SDS011;5992;52.744;6.898;2022-07-09T22:45:35;0.97;;;0.77;;
11865;SDS011;5992;52.744;6.898;2022-07-09T22:48:51;2.10;;;1.00;;
11865;SDS011;5992;52.744;6.898;2022-07-09T22:52:14;0.73;;;0.73;;
11865;SDS011;5992;52.744;6.898;2022-07-09T22:55:33;3.00;;;1.00;;
11865;SDS011;5992;52.744;6.898;2022-07-09T22:59:13;2.20;;;1.20;;
11865;SDS011;5992;52.744;6.898;2022-07-09T23:02:31;1.50;;;0.80;;
11865;SDS011;5992;52.744;6.898;2022-07-09T23:06:01;1.90;;;0.90;;
11865;SDS011;5992;52.744;6.898;2022-07-09T23:09:06;4.90;;;1.00;;
11865;SDS011;5992;52.744;6.898;2022-07-09T23:12:38;1.10;;;0.73;;
11865;SDS011;5992;52.744;6.898;2022-07-09T23:15:43;1.20;;;1.07;;